createdAt,value
2018-09-20T00:00:17.846Z,0
2018-09-20T00:01:19.205Z,0
2018-09-20T00:02:20.575Z,0
2018-09-20T00:03:21.942Z,0
2018-09-20T00:04:23.307Z,0
2018-09-20T00:05:24.672Z,0
2018-09-20T00:06:26.040Z,0
2018-09-20T00:07:27.397Z,0
2018-09-20T00:08:28.761Z,0
2018-09-20T00:09:30.118Z,0
2018-09-20T00:10:31.473Z,0
2018-09-20T00:11:32.836Z,0
2018-09-20T00:12:34.196Z,0
2018-09-20T00:13:35.562Z,0
2018-09-20T00:14:36.932Z,0
2018-09-20T00:15:38.287Z,0
2018-09-20T00:16:39.646Z,0
2018-09-20T00:17:41.010Z,0
2018-09-20T00:18:42.365Z,0
2018-09-20T00:19:43.722Z,0
2018-09-20T00:20:45.082Z,0
2018-09-20T00:21:46.472Z,0
2018-09-20T00:22:47.832Z,0
2018-09-20T00:23:49.191Z,0
2018-09-20T00:24:50.546Z,0
2018-09-20T00:25:51.907Z,0
2018-09-20T00:26:53.268Z,0
2018-09-20T00:27:54.621Z,0
2018-09-20T00:28:55.984Z,0
2018-09-20T00:29:57.345Z,0
2018-09-20T00:30:58.705Z,0
2018-09-20T00:32:00.061Z,0
2018-09-20T00:33:01.422Z,0
2018-09-20T00:34:02.789Z,0
2018-09-20T00:35:04.150Z,0
2018-09-20T00:36:05.510Z,0
2018-09-20T00:37:06.888Z,0
2018-09-20T00:38:08.245Z,0
2018-09-20T00:39:09.632Z,0
2018-09-20T00:40:11.001Z,0
2018-09-20T00:41:12.361Z,0
2018-09-20T00:42:13.715Z,0
2018-09-20T00:43:15.076Z,0
2018-09-20T00:44:16.446Z,0
2018-09-20T00:45:17.797Z,0
2018-09-20T00:46:19.161Z,0
2018-09-20T00:47:20.521Z,0
2018-09-20T00:48:21.881Z,0
2018-09-20T00:49:23.239Z,0
2018-09-20T00:50:24.606Z,0
2018-09-20T00:51:25.962Z,0
2018-09-20T00:52:27.323Z,0
2018-09-20T00:53:28.677Z,0
2018-09-20T00:54:30.042Z,0
2018-09-20T00:55:31.410Z,0
2018-09-20T00:56:32.775Z,0
2018-09-20T00:57:34.135Z,0
2018-09-20T00:58:35.496Z,0
2018-09-20T00:59:36.864Z,0
2018-09-20T01:00:38.215Z,0
2018-09-20T01:01:39.580Z,0
2018-09-20T01:02:41.415Z,0
2018-09-20T01:03:42.781Z,0
2018-09-20T01:04:44.152Z,0
2018-09-20T01:05:45.505Z,0
2018-09-20T01:06:46.865Z,0
2018-09-20T01:07:48.226Z,0
2018-09-20T01:08:49.593Z,0
2018-09-20T01:09:50.945Z,0
2018-09-20T01:10:52.306Z,0
2018-09-20T01:11:53.674Z,0
2018-09-20T01:12:55.037Z,0
2018-09-20T01:13:56.396Z,0
2018-09-20T01:14:57.767Z,0
2018-09-20T01:15:59.126Z,0
2018-09-20T01:17:00.485Z,0
2018-09-20T01:18:01.840Z,0
2018-09-20T01:19:03.206Z,0
2018-09-20T01:20:04.557Z,0
2018-09-20T01:21:05.921Z,0
2018-09-20T01:22:07.277Z,0
2018-09-20T01:23:08.652Z,0
2018-09-20T01:24:10.012Z,0
2018-09-20T01:25:11.383Z,0
2018-09-20T01:26:12.738Z,0
2018-09-20T01:27:14.102Z,0
2018-09-20T01:28:15.470Z,0
2018-09-20T01:29:16.834Z,0
2018-09-20T01:30:18.198Z,0
2018-09-20T01:31:19.563Z,0
2018-09-20T01:32:20.922Z,0
2018-09-20T01:33:22.302Z,0
2018-09-20T01:34:23.668Z,0
2018-09-20T01:35:25.077Z,0
2018-09-20T01:36:26.386Z,0
2018-09-20T01:37:27.756Z,0
2018-09-20T01:38:29.112Z,0
2018-09-20T01:39:30.476Z,0
2018-09-20T01:40:31.847Z,0
2018-09-20T01:41:33.206Z,0
2018-09-20T01:42:34.577Z,0
2018-09-20T01:43:35.937Z,0
2018-09-20T01:44:37.292Z,0
2018-09-20T01:45:38.663Z,0
2018-09-20T01:46:40.016Z,0
2018-09-20T01:47:41.397Z,0
2018-09-20T01:48:42.762Z,0
2018-09-20T01:49:44.122Z,0
2018-09-20T01:50:45.483Z,0
2018-09-20T01:51:46.852Z,0
2018-09-20T01:52:48.206Z,0
2018-09-20T01:53:49.557Z,0
2018-09-20T01:54:50.930Z,0
2018-09-20T01:55:52.293Z,0
2018-09-20T01:56:53.657Z,0
2018-09-20T01:57:55.021Z,0
2018-09-20T01:58:56.377Z,0
2018-09-20T01:59:57.742Z,0
2018-09-20T02:00:59.088Z,0
2018-09-20T02:02:00.457Z,0
2018-09-20T02:03:01.827Z,0
2018-09-20T02:04:03.248Z,0
2018-09-20T02:05:04.614Z,0
2018-09-20T02:06:05.981Z,0
2018-09-20T02:07:07.352Z,0
2018-09-20T02:08:08.713Z,0
2018-09-20T02:09:10.084Z,0
2018-09-20T02:10:11.441Z,0
2018-09-20T02:11:12.801Z,0
2018-09-20T02:12:14.159Z,0
2018-09-20T02:13:15.523Z,0
2018-09-20T02:14:16.887Z,0
2018-09-20T02:15:18.249Z,0
2018-09-20T02:16:19.608Z,0
2018-09-20T02:17:20.962Z,0
2018-09-20T02:18:22.323Z,0
2018-09-20T02:19:23.677Z,0
2018-09-20T02:20:25.036Z,0
2018-09-20T02:21:26.392Z,0
2018-09-20T02:22:27.753Z,0
2018-09-20T02:23:29.106Z,0
2018-09-20T02:24:30.472Z,0
2018-09-20T02:25:31.827Z,0
2018-09-20T02:26:33.195Z,0
2018-09-20T02:27:34.558Z,0
2018-09-20T02:28:35.911Z,0
2018-09-20T02:29:37.267Z,0
2018-09-20T02:30:38.630Z,0
2018-09-20T02:31:39.989Z,0
2018-09-20T02:32:41.348Z,0
2018-09-20T02:33:42.699Z,0
2018-09-20T02:34:44.062Z,0
2018-09-20T02:35:45.423Z,0
2018-09-20T02:36:46.779Z,0
2018-09-20T02:37:48.128Z,0
2018-09-20T02:38:49.503Z,0
2018-09-20T02:39:50.872Z,0
2018-09-20T02:40:52.237Z,0
2018-09-20T02:41:53.597Z,0
2018-09-20T02:42:54.959Z,0
2018-09-20T02:43:56.314Z,0
2018-09-20T02:44:57.683Z,0
2018-09-20T02:45:59.029Z,0
2018-09-20T02:47:00.404Z,0
2018-09-20T02:48:01.761Z,0
2018-09-20T02:49:03.127Z,0
2018-09-20T02:50:04.496Z,0
2018-09-20T02:51:05.853Z,0
2018-09-20T02:52:07.209Z,0
2018-09-20T02:53:08.572Z,0
2018-09-20T02:54:09.921Z,0
2018-09-20T02:55:11.564Z,0
2018-09-20T02:56:12.937Z,0
2018-09-20T02:57:14.286Z,0
2018-09-20T02:58:15.643Z,0
2018-09-20T02:59:17.002Z,0
2018-09-20T03:00:18.373Z,0
2018-09-20T03:01:19.723Z,0
2018-09-20T03:02:21.082Z,0
2018-09-20T03:03:22.444Z,0
2018-09-20T03:04:23.809Z,0
2018-09-20T03:05:25.171Z,0
2018-09-20T03:06:26.545Z,0
2018-09-20T03:07:27.888Z,0
2018-09-20T03:08:29.259Z,0
2018-09-20T03:09:30.624Z,0
2018-09-20T03:10:31.979Z,0
2018-09-20T03:11:33.330Z,0
2018-09-20T03:12:34.693Z,0
2018-09-20T03:13:36.056Z,0
2018-09-20T03:14:37.417Z,0
2018-09-20T03:15:38.780Z,0
2018-09-20T03:16:40.146Z,0
2018-09-20T03:17:41.803Z,0
2018-09-20T03:18:43.171Z,0
2018-09-20T03:19:44.532Z,0
2018-09-20T03:20:45.899Z,0
2018-09-20T03:21:47.271Z,0
2018-09-20T03:22:48.638Z,0
2018-09-20T03:23:50.005Z,0
2018-09-20T03:24:51.361Z,0
2018-09-20T03:25:52.735Z,0
2018-09-20T03:26:54.088Z,0
2018-09-20T03:27:55.452Z,0
2018-09-20T03:28:56.813Z,0
2018-09-20T03:29:58.167Z,0
2018-09-20T03:30:59.529Z,0
2018-09-20T03:32:00.888Z,0
2018-09-20T03:33:02.244Z,0
2018-09-20T03:34:03.607Z,0
2018-09-20T03:35:04.957Z,0
2018-09-20T03:36:06.318Z,0
2018-09-20T03:37:07.674Z,0
2018-09-20T03:38:09.041Z,0
2018-09-20T03:39:10.416Z,0
2018-09-20T03:40:11.774Z,0
2018-09-20T03:41:13.137Z,0
2018-09-20T03:42:14.497Z,0
2018-09-20T03:43:15.852Z,0
2018-09-20T03:44:56.906Z,0
2018-09-20T03:45:58.267Z,0
2018-09-20T03:46:59.628Z,0
2018-09-20T03:48:00.974Z,0
2018-09-20T03:49:02.344Z,0
2018-09-20T03:50:03.711Z,0
2018-09-20T03:51:05.062Z,0
2018-09-20T03:52:06.424Z,0
2018-09-20T03:53:07.793Z,0
2018-09-20T03:54:09.149Z,0
2018-09-20T03:55:10.619Z,0
2018-09-20T03:56:11.974Z,0
2018-09-20T03:57:13.329Z,0
2018-09-20T03:58:14.695Z,0
2018-09-20T03:59:16.049Z,0
2018-09-20T04:00:17.418Z,0
2018-09-20T04:01:18.774Z,0
2018-09-20T04:02:20.133Z,0
2018-09-20T04:03:21.498Z,0
2018-09-20T04:04:22.848Z,0
2018-09-20T04:05:24.215Z,0
2018-09-20T04:06:25.574Z,0
2018-09-20T04:07:26.938Z,0
2018-09-20T04:08:28.299Z,0
2018-09-20T04:09:29.691Z,0
2018-09-20T04:10:31.028Z,0
2018-09-20T04:11:32.382Z,0
2018-09-20T04:12:33.764Z,0
2018-09-20T04:13:35.121Z,0
2018-09-20T04:14:36.472Z,0
2018-09-20T04:15:37.818Z,0
2018-09-20T04:16:39.209Z,0
2018-09-20T04:17:40.563Z,0
2018-09-20T04:18:41.933Z,0
2018-09-20T04:19:43.333Z,0
2018-09-20T04:20:44.733Z,0
2018-09-20T04:21:46.078Z,0
2018-09-20T04:22:47.443Z,0
2018-09-20T04:23:48.804Z,0
2018-09-20T04:24:50.168Z,0
2018-09-20T04:25:51.564Z,0
2018-09-20T04:26:52.918Z,0
2018-09-20T04:27:54.284Z,0
2018-09-20T04:28:55.659Z,0
2018-09-20T04:29:57.022Z,0
2018-09-20T04:30:58.380Z,0
2018-09-20T04:31:59.741Z,0
2018-09-20T04:33:01.098Z,0
2018-09-20T04:34:02.490Z,0
2018-09-20T04:35:03.858Z,4
2018-09-20T04:36:05.251Z,4
2018-09-20T04:37:06.619Z,0
2018-09-20T04:38:07.999Z,4
2018-09-20T04:39:09.359Z,4
2018-09-20T04:40:10.719Z,4
2018-09-20T04:41:12.118Z,8
2018-09-20T04:42:13.470Z,8
2018-09-20T04:43:14.830Z,8
2018-09-20T04:44:16.184Z,12
2018-09-20T04:45:17.550Z,12
2018-09-20T04:46:18.916Z,16
2018-09-20T04:47:20.289Z,20
2018-09-20T04:48:21.645Z,24
2018-09-20T04:49:23.018Z,28
2018-09-20T04:50:24.377Z,32
2018-09-20T04:51:25.759Z,36
2018-09-20T04:52:27.148Z,48
2018-09-20T04:53:28.574Z,56
2018-09-20T04:54:29.881Z,64
2018-09-20T04:55:31.241Z,76
2018-09-20T04:56:32.609Z,88
2018-09-20T04:57:33.966Z,108
2018-09-20T04:58:35.323Z,132
2018-09-20T04:59:36.692Z,156
2018-09-20T05:00:38.049Z,176
2018-09-20T05:01:39.408Z,204
2018-09-20T05:02:40.775Z,232
2018-09-20T05:03:42.150Z,264
2018-09-20T05:04:43.509Z,300
2018-09-20T05:05:44.880Z,332
2018-09-20T05:06:46.250Z,368
2018-09-20T05:07:47.647Z,404
2018-09-20T05:08:48.981Z,444
2018-09-20T05:09:50.349Z,484
2018-09-20T05:10:51.715Z,544
2018-09-20T05:11:53.078Z,612
2018-09-20T05:12:54.443Z,684
2018-09-20T05:13:55.809Z,756
2018-09-20T05:14:57.166Z,840
2018-09-20T05:15:58.526Z,928
2018-09-20T05:16:59.896Z,1016
2018-09-20T05:18:01.264Z,1112
2018-09-20T05:19:02.619Z,1212
2018-09-20T05:20:03.996Z,1320
2018-09-20T05:21:05.398Z,1432
2018-09-20T05:22:06.754Z,1556
2018-09-20T05:23:08.128Z,1680
2018-09-20T05:24:09.484Z,1812
2018-09-20T05:25:10.841Z,1944
2018-09-20T05:26:12.209Z,2068
2018-09-20T05:27:13.575Z,2184
2018-09-20T05:28:14.939Z,2304
2018-09-20T05:29:16.303Z,2432
2018-09-20T05:30:17.664Z,2556
2018-09-20T05:31:19.028Z,2684
2018-09-20T05:32:20.400Z,2808
2018-09-20T05:33:21.767Z,2936
2018-09-20T05:34:23.128Z,3072
2018-09-20T05:35:24.532Z,3212
2018-09-20T05:36:25.887Z,3348
2018-09-20T05:37:27.230Z,3456
2018-09-20T05:38:28.602Z,3540
2018-09-20T05:39:29.955Z,3628
2018-09-20T05:40:31.320Z,3724
2018-09-20T05:41:32.678Z,3836
2018-09-20T05:42:34.044Z,3948
2018-09-20T05:43:35.488Z,4060
2018-09-20T05:44:36.786Z,4148
2018-09-20T05:45:38.150Z,4216
2018-09-20T05:46:39.520Z,4284
2018-09-20T05:47:40.873Z,4352
2018-09-20T05:48:42.253Z,4424
2018-09-20T05:49:43.630Z,4516
2018-09-20T05:50:45.004Z,4608
2018-09-20T05:51:46.353Z,4704
2018-09-20T05:52:47.725Z,4800
2018-09-20T05:53:49.083Z,4888
2018-09-20T05:54:50.454Z,4964
2018-09-20T05:55:51.813Z,5040
2018-09-20T05:56:53.180Z,5132
2018-09-20T05:57:54.546Z,5228
2018-09-20T05:58:55.908Z,5324
2018-09-20T05:59:57.274Z,5428
2018-09-20T06:00:58.633Z,5532
2018-09-20T06:01:59.989Z,5636
2018-09-20T06:03:01.350Z,5732
2018-09-20T06:04:02.715Z,5824
2018-09-20T06:05:04.081Z,5908
2018-09-20T06:06:05.445Z,5976
2018-09-20T06:07:06.810Z,6036
2018-09-20T06:08:08.183Z,6088
2018-09-20T06:09:09.640Z,6120
2018-09-20T06:10:10.999Z,6140
2018-09-20T06:11:12.365Z,6168
2018-09-20T06:12:13.724Z,6200
2018-09-20T06:13:15.100Z,6228
2018-09-20T06:14:16.460Z,6260
2018-09-20T06:15:17.828Z,6304
2018-09-20T06:16:19.171Z,6372
2018-09-20T06:17:20.546Z,6460
2018-09-20T06:18:21.916Z,6544
2018-09-20T06:19:23.272Z,6604
2018-09-20T06:20:24.639Z,6636
2018-09-20T06:21:26.009Z,6652
2018-09-20T06:22:27.366Z,6664
2018-09-20T06:23:28.738Z,6668
2018-09-20T06:24:30.116Z,6676
2018-09-20T06:25:31.488Z,6668
2018-09-20T06:26:32.846Z,6680
2018-09-20T06:27:34.272Z,6688
2018-09-20T06:28:35.585Z,6708
2018-09-20T06:29:36.949Z,6720
2018-09-20T06:30:38.319Z,6712
2018-09-20T06:31:39.679Z,6704
2018-09-20T06:32:41.044Z,6724
2018-09-20T06:33:43.634Z,6780
2018-09-20T06:34:44.994Z,6852
2018-09-20T06:35:46.352Z,7020
2018-09-20T06:36:47.750Z,7200
2018-09-20T06:37:49.089Z,7376
2018-09-20T06:38:50.445Z,7536
2018-09-20T06:39:51.816Z,7828
2018-09-20T06:40:53.209Z,8180
2018-09-20T06:41:54.546Z,8596
2018-09-20T06:42:55.913Z,9244
2018-09-20T06:43:57.286Z,9564
2018-09-20T06:44:58.661Z,9836
2018-09-20T06:46:00.020Z,10172
2018-09-20T06:47:01.386Z,10280
2018-09-20T06:48:02.746Z,10556
2018-09-20T06:49:04.104Z,11056
2018-09-20T06:50:05.484Z,11480
2018-09-20T06:51:06.858Z,11580
2018-09-20T06:52:08.226Z,11864
2018-09-20T06:53:09.590Z,12176
2018-09-20T06:54:10.956Z,12392
2018-09-20T06:55:12.319Z,12808
2018-09-20T06:56:13.689Z,12916
2018-09-20T06:57:15.075Z,12912
2018-09-20T06:58:16.437Z,13188
2018-09-20T06:59:17.804Z,13752
2018-09-20T07:00:19.170Z,13988
2018-09-20T07:01:20.537Z,14392
2018-09-20T07:02:21.900Z,15388
2018-09-20T07:03:23.337Z,16168
2018-09-20T07:04:24.640Z,17436
2018-09-20T07:05:26.031Z,19808
2018-09-20T07:06:27.400Z,21312
2018-09-20T07:07:28.769Z,24960
2018-09-20T07:08:30.130Z,28448
2018-09-20T07:09:31.506Z,31584
2018-09-20T07:10:32.872Z,34624
2018-09-20T07:11:34.242Z,39392
2018-09-20T07:12:35.609Z,40096
2018-09-20T07:13:37.011Z,42144
2018-09-20T07:14:38.341Z,40224
2018-09-20T07:15:39.715Z,51136
2018-09-20T07:16:41.077Z,59840
2018-09-20T07:17:43.126Z,67648
2018-09-20T07:18:44.496Z,79584
2018-09-20T07:19:45.870Z,100320
2018-09-20T07:20:47.242Z,108224
2018-09-20T07:21:48.616Z,97504
2018-09-20T07:22:49.990Z,87616
2018-09-20T07:23:51.352Z,72576
2018-09-20T07:24:52.736Z,60800
2018-09-20T07:25:54.147Z,56576
2018-09-20T07:26:55.526Z,48832
2018-09-20T07:27:56.897Z,44000
2018-09-20T07:28:58.280Z,41248
2018-09-20T07:29:59.645Z,38400
2018-09-20T07:31:01.021Z,35168
2018-09-20T07:32:02.407Z,34592
2018-09-20T07:33:03.772Z,34048
2018-09-20T07:34:05.146Z,31872
2018-09-20T07:35:06.515Z,29952
2018-09-20T07:36:07.877Z,28288
2018-09-20T07:37:09.257Z,27424
2018-09-20T07:38:10.637Z,26048
2018-09-20T07:39:12.015Z,24736
2018-09-20T07:40:13.390Z,25120
2018-09-20T07:41:14.751Z,22304
2018-09-20T07:42:16.122Z,20800
2018-09-20T07:43:17.506Z,23904
2018-09-20T07:44:18.912Z,25088
2018-09-20T07:45:20.293Z,26048
2018-09-20T07:46:21.671Z,25088
2018-09-20T07:47:23.035Z,23840
2018-09-20T07:48:24.412Z,24960
2018-09-20T07:49:25.792Z,24576
2018-09-20T07:50:27.160Z,24352
2018-09-20T07:51:28.532Z,23776
2018-09-20T07:52:29.896Z,26752
2018-09-20T07:53:31.269Z,26464
2018-09-20T07:54:32.647Z,26784
2018-09-20T07:55:34.020Z,26880
2018-09-20T07:56:35.416Z,26848
2018-09-20T07:57:36.734Z,27712
2018-09-20T07:58:38.120Z,27424
2018-09-20T07:59:39.480Z,26976
2018-09-20T08:00:40.851Z,27264
2018-09-20T08:01:42.286Z,26752
2018-09-20T08:02:43.614Z,25440
2018-09-20T08:03:44.993Z,24832
2018-09-20T08:04:46.369Z,26496
2018-09-20T08:05:47.740Z,25536
2018-09-20T08:06:49.115Z,26016
2018-09-20T08:07:50.484Z,27136
2018-09-20T08:08:51.860Z,27680
2018-09-20T08:09:53.225Z,27648
2018-09-20T08:10:54.613Z,27616
2018-09-20T08:11:55.982Z,27680
2018-09-20T08:12:57.359Z,27904
2018-09-20T08:13:58.736Z,27616
2018-09-20T08:15:00.117Z,27616
2018-09-20T08:16:01.492Z,27392
2018-09-20T08:17:02.857Z,27168
2018-09-20T08:18:04.260Z,27104
2018-09-20T08:19:05.646Z,27040
2018-09-20T08:20:07.023Z,27232
2018-09-20T08:21:08.401Z,27744
2018-09-20T08:22:09.781Z,28224
2018-09-20T08:23:11.160Z,28704
2018-09-20T08:24:12.550Z,29504
2018-09-20T08:25:13.910Z,30624
2018-09-20T08:26:15.288Z,30976
2018-09-20T08:27:16.663Z,30560
2018-09-20T08:28:18.047Z,29664
2018-09-20T08:29:19.431Z,28320
2018-09-20T08:30:20.810Z,27744
2018-09-20T08:31:22.187Z,28160
2018-09-20T08:32:23.570Z,28544
2018-09-20T08:33:24.928Z,29152
2018-09-20T08:34:26.313Z,29696
2018-09-20T08:35:27.686Z,30624
2018-09-20T08:36:29.087Z,32096
2018-09-20T08:37:30.526Z,45632
2018-09-20T08:38:31.830Z,84704
2018-09-20T08:39:33.211Z,102720
2018-09-20T08:40:34.586Z,89632
2018-09-20T08:41:35.966Z,82976
2018-09-20T08:42:37.340Z,86432
2018-09-20T08:43:38.720Z,88064
2018-09-20T08:44:40.090Z,83200
2018-09-20T08:45:41.475Z,81440
2018-09-20T08:46:42.846Z,84064
2018-09-20T08:47:44.223Z,84544
2018-09-20T08:48:45.607Z,88512
2018-09-20T08:49:47.000Z,92480
2018-09-20T08:50:48.376Z,93248
2018-09-20T08:51:49.752Z,91136
2018-09-20T08:52:51.122Z,87744
2018-09-20T08:53:52.507Z,88960
2018-09-20T08:54:53.872Z,92448
2018-09-20T08:55:55.262Z,94208
2018-09-20T08:56:56.673Z,93120
2018-09-20T08:57:57.976Z,93632
2018-09-20T08:58:59.357Z,93536
2018-09-20T09:00:00.737Z,95744
2018-09-20T09:01:02.111Z,89440
2018-09-20T09:02:03.487Z,94304
2018-09-20T09:03:04.865Z,95360
2018-09-20T09:04:06.241Z,93792
2018-09-20T09:05:07.616Z,94272
2018-09-20T09:06:09.013Z,94112
2018-09-20T09:07:10.385Z,96288
2018-09-20T09:08:11.770Z,96672
2018-09-20T09:09:13.155Z,96128
2018-09-20T09:10:14.529Z,100160
2018-09-20T09:11:15.910Z,104160
2018-09-20T09:12:17.283Z,105600
2018-09-20T09:13:18.675Z,103488
2018-09-20T09:14:20.058Z,104640
2018-09-20T09:15:21.438Z,108032
2018-09-20T09:16:22.823Z,107936
2018-09-20T09:17:24.211Z,96256
2018-09-20T09:18:25.595Z,106176
2018-09-20T09:19:26.965Z,103904
2018-09-20T09:20:28.352Z,103712
2018-09-20T09:21:29.727Z,105280
2018-09-20T09:22:31.112Z,105600
2018-09-20T09:23:32.499Z,105472
2018-09-20T09:24:33.875Z,110368
2018-09-20T09:25:35.262Z,111584
2018-09-20T09:26:36.639Z,110624
2018-09-20T09:27:38.025Z,109184
2018-09-20T09:28:39.459Z,113440
2018-09-20T09:29:40.790Z,113856
2018-09-20T09:30:42.175Z,114592
2018-09-20T09:31:43.559Z,116800
2018-09-20T09:32:44.932Z,116672
2018-09-20T09:33:46.322Z,111040
2018-09-20T09:34:47.706Z,108512
2018-09-20T09:35:49.103Z,112832
2018-09-20T09:36:50.481Z,113376
2018-09-20T09:37:51.866Z,113696
2018-09-20T09:38:53.256Z,113344
2018-09-20T09:39:54.638Z,112640
2018-09-20T09:40:56.016Z,111520
2018-09-20T09:41:57.405Z,110304
2018-09-20T09:42:58.782Z,110944
2018-09-20T09:44:00.156Z,113408
2018-09-20T09:45:41.023Z,112928
2018-09-20T09:46:42.403Z,115392
2018-09-20T09:47:43.780Z,113952
2018-09-20T09:48:45.157Z,111712
2018-09-20T09:49:46.537Z,104032
2018-09-20T09:50:47.926Z,112960
2018-09-20T09:51:49.306Z,113664
2018-09-20T09:52:50.681Z,115168
2018-09-20T09:53:52.062Z,118112
2018-09-20T09:54:53.518Z,117952
2018-09-20T09:55:54.853Z,112576
2018-09-20T09:56:56.241Z,115712
2018-09-20T09:57:57.623Z,117504
2018-09-20T09:58:59.006Z,114784
2018-09-20T10:00:00.384Z,113312
2018-09-20T10:01:01.761Z,107584
2018-09-20T10:02:03.137Z,111648
2018-09-20T10:03:04.546Z,111392
2018-09-20T10:04:05.916Z,109760
2018-09-20T10:05:07.301Z,109056
2018-09-20T10:06:08.686Z,111904
2018-09-20T10:07:10.074Z,114080
2018-09-20T10:08:11.461Z,113536
2018-09-20T10:09:12.833Z,113280
2018-09-20T10:10:14.214Z,115520
2018-09-20T10:11:15.611Z,114848
2018-09-20T10:12:16.988Z,110336
2018-09-20T10:13:18.439Z,106112
2018-09-20T10:14:19.713Z,103520
2018-09-20T10:15:21.092Z,109888
2018-09-20T10:16:22.473Z,114432
2018-09-20T10:17:23.886Z,118080
2018-09-20T10:18:25.278Z,115008
2018-09-20T10:19:26.651Z,124320
2018-09-20T10:20:28.047Z,123968
2018-09-20T10:21:29.425Z,118880
2018-09-20T10:22:30.807Z,115008
2018-09-20T10:23:32.192Z,114944
2018-09-20T10:24:33.585Z,115936
2018-09-20T10:25:34.967Z,100896
2018-09-20T10:26:36.340Z,95232
2018-09-20T10:27:37.728Z,97184
2018-09-20T10:28:39.114Z,109280
2018-09-20T10:29:40.499Z,119264
2018-09-20T10:30:41.876Z,120608
2018-09-20T10:31:43.262Z,117440
2018-09-20T10:32:44.636Z,117600
2018-09-20T10:33:46.053Z,117760
2018-09-20T10:34:47.403Z,117184
2018-09-20T10:35:48.786Z,117920
2018-09-20T10:36:50.167Z,109888
2018-09-20T10:37:51.549Z,105920
2018-09-20T10:38:52.941Z,109888
2018-09-20T10:39:54.324Z,113824
2018-09-20T10:40:55.715Z,116640
2018-09-20T10:41:57.093Z,114496
2018-09-20T10:42:58.474Z,114976
2018-09-20T10:43:59.859Z,116864
2018-09-20T10:45:01.245Z,114400
2018-09-20T10:46:02.642Z,109472
2018-09-20T10:47:04.075Z,110752
2018-09-20T10:48:05.412Z,110432
2018-09-20T10:49:06.822Z,105056
2018-09-20T10:50:08.197Z,105600
2018-09-20T10:51:09.579Z,111392
2018-09-20T10:52:10.958Z,112256
2018-09-20T10:53:12.362Z,114176
2018-09-20T10:54:13.739Z,114080
2018-09-20T10:55:15.192Z,114528
2018-09-20T10:56:16.469Z,114432
2018-09-20T10:57:17.867Z,113344
2018-09-20T10:58:19.269Z,112960
2018-09-20T10:59:20.658Z,111936
2018-09-20T11:00:22.024Z,112384
2018-09-20T11:01:23.436Z,115776
2018-09-20T11:02:24.825Z,116064
2018-09-20T11:03:26.209Z,115168
2018-09-20T11:04:27.593Z,116416
2018-09-20T11:05:28.965Z,118944
2018-09-20T11:06:30.348Z,117792
2018-09-20T11:07:31.732Z,116896
2018-09-20T11:08:33.124Z,116992
2018-09-20T11:09:34.507Z,116064
2018-09-20T11:10:35.938Z,114688
2018-09-20T11:11:37.277Z,113216
2018-09-20T11:12:38.657Z,112256
2018-09-20T11:13:40.034Z,114016
2018-09-20T11:14:41.434Z,117024
2018-09-20T11:15:42.822Z,119072
2018-09-20T11:16:44.199Z,114400
2018-09-20T11:17:45.583Z,112288
2018-09-20T11:18:46.987Z,109664
2018-09-20T11:19:48.554Z,108544
2018-09-20T11:20:49.953Z,114912
2018-09-20T11:21:51.333Z,118272
2018-09-20T11:22:52.719Z,116128
2018-09-20T11:23:54.997Z,112608
2018-09-20T11:24:56.367Z,111808
2018-09-20T11:25:57.803Z,113280
2018-09-20T11:26:59.115Z,115552
2018-09-20T11:28:00.494Z,115456
2018-09-20T11:29:01.894Z,113856
2018-09-20T11:30:03.282Z,114944
2018-09-20T11:31:04.664Z,114592
2018-09-20T11:32:06.050Z,113568
2018-09-20T11:33:07.435Z,112128
2018-09-20T11:34:08.828Z,111072
2018-09-20T11:35:10.212Z,113568
2018-09-20T11:36:11.655Z,111904
2018-09-20T11:37:12.973Z,110496
2018-09-20T11:38:14.358Z,110432
2018-09-20T11:39:15.743Z,109792
2018-09-20T11:40:17.129Z,111104
2018-09-20T11:41:18.507Z,111072
2018-09-20T11:42:19.888Z,106720
2018-09-20T11:43:21.264Z,105760
2018-09-20T11:44:22.648Z,107200
2018-09-20T11:45:24.801Z,109152
2018-09-20T11:46:26.206Z,111808
2018-09-20T11:47:27.591Z,110592
2018-09-20T11:48:28.983Z,108608
2018-09-20T11:49:30.360Z,108608
2018-09-20T11:50:31.750Z,110944
2018-09-20T11:51:33.120Z,108864
2018-09-20T11:52:34.510Z,103808
2018-09-20T11:53:35.912Z,102240
2018-09-20T11:54:37.290Z,105920
2018-09-20T11:55:38.680Z,108384
2018-09-20T11:56:40.047Z,82912
2018-09-20T11:57:41.445Z,105504
2018-09-20T11:58:42.819Z,105344
2018-09-20T11:59:44.202Z,104576
2018-09-20T12:00:45.579Z,104064
2018-09-20T12:01:47.026Z,106240
2018-09-20T12:02:48.349Z,108000
2018-09-20T12:03:49.729Z,109152
2018-09-20T12:04:51.109Z,105056
2018-09-20T12:05:52.503Z,102944
2018-09-20T12:06:53.910Z,99520
2018-09-20T12:07:55.289Z,104800
2018-09-20T12:08:56.664Z,113120
2018-09-20T12:09:58.062Z,111392
2018-09-20T12:10:59.457Z,110912
2018-09-20T12:12:00.833Z,109344
2018-09-20T12:13:02.220Z,107520
2018-09-20T12:14:03.595Z,103008
2018-09-20T12:15:04.989Z,101728
2018-09-20T12:16:06.360Z,102048
2018-09-20T12:17:07.740Z,103584
2018-09-20T12:18:09.142Z,105920
2018-09-20T12:19:10.528Z,93536
2018-09-20T12:20:11.899Z,94112
2018-09-20T12:21:13.285Z,100672
2018-09-20T12:22:14.679Z,97696
2018-09-20T12:23:16.093Z,97728
2018-09-20T12:24:17.469Z,100352
2018-09-20T12:25:18.850Z,104544
2018-09-20T12:26:20.236Z,103520
2018-09-20T12:27:21.617Z,101856
2018-09-20T12:28:22.999Z,99392
2018-09-20T12:29:24.388Z,95616
2018-09-20T12:30:25.774Z,94080
2018-09-20T12:31:27.181Z,95104
2018-09-20T12:32:28.533Z,96352
2018-09-20T12:33:29.913Z,94720
2018-09-20T12:34:31.297Z,91296
2018-09-20T12:35:32.754Z,91584
2018-09-20T12:36:34.063Z,91648
2018-09-20T12:37:35.482Z,91904
2018-09-20T12:38:36.888Z,88288
2018-09-20T12:39:38.254Z,83616
2018-09-20T12:40:39.638Z,88928
2018-09-20T12:41:41.014Z,86688
2018-09-20T12:42:42.416Z,89632
2018-09-20T12:43:43.774Z,91520
2018-09-20T12:44:45.159Z,94048
2018-09-20T12:45:46.542Z,95104
2018-09-20T12:46:47.913Z,93344
2018-09-20T12:47:49.300Z,90016
2018-09-20T12:48:50.697Z,87168
2018-09-20T12:49:52.073Z,89504
2018-09-20T12:50:53.497Z,92032
2018-09-20T12:51:54.880Z,90656
2018-09-20T12:52:56.265Z,92704
2018-09-20T12:53:57.649Z,92000
2018-09-20T12:54:59.033Z,90912
2018-09-20T12:56:00.414Z,89824
2018-09-20T12:57:01.795Z,87552
2018-09-20T12:58:03.175Z,88928
2018-09-20T12:59:04.560Z,89184
2018-09-20T13:00:05.943Z,87936
2018-09-20T13:01:07.324Z,88128
2018-09-20T13:02:08.714Z,85664
2018-09-20T13:03:10.084Z,83424
2018-09-20T13:04:11.463Z,82528
2018-09-20T13:05:12.838Z,81504
2018-09-20T13:06:14.229Z,81856
2018-09-20T13:07:15.602Z,81024
2018-09-20T13:08:16.998Z,80736
2018-09-20T13:09:18.373Z,79712
2018-09-20T13:10:19.760Z,79552
2018-09-20T13:11:21.154Z,83712
2018-09-20T13:12:22.528Z,85024
2018-09-20T13:13:23.910Z,83520
2018-09-20T13:14:25.275Z,82560
2018-09-20T13:15:26.665Z,81792
2018-09-20T13:16:28.057Z,80768
2018-09-20T13:17:29.438Z,81504
2018-09-20T13:18:30.830Z,81248
2018-09-20T13:19:32.215Z,79552
2018-09-20T13:20:33.605Z,78240
2018-09-20T13:21:34.985Z,78528
2018-09-20T13:22:36.363Z,80224
2018-09-20T13:23:37.735Z,78720
2018-09-20T13:24:39.143Z,78528
2018-09-20T13:25:40.490Z,77952
2018-09-20T13:26:41.871Z,78432
2018-09-20T13:27:43.264Z,77728
2018-09-20T13:28:44.634Z,75200
2018-09-20T13:29:46.013Z,73792
2018-09-20T13:30:47.379Z,74464
2018-09-20T13:31:48.792Z,73696
2018-09-20T13:32:50.097Z,74400
2018-09-20T13:33:51.492Z,72800
2018-09-20T13:34:52.870Z,72352
2018-09-20T13:35:54.250Z,72576
2018-09-20T13:36:55.638Z,72896
2018-09-20T13:37:57.018Z,71840
2018-09-20T13:38:58.400Z,71104
2018-09-20T13:39:59.781Z,70208
2018-09-20T13:41:01.156Z,70112
2018-09-20T13:42:02.533Z,70560
2018-09-20T13:43:03.920Z,67712
2018-09-20T13:44:05.300Z,65952
2018-09-20T13:45:06.685Z,66496
2018-09-20T13:46:08.098Z,66080
2018-09-20T13:47:09.470Z,64224